Terminal Aerodrome Forecast
Issued by NWS

Home | Current Version | Previous Version | Text Only | Print | Product List | Glossary On
Versions: 1 2 3 4 5 6 7 8 9 10 11 12 13 14 15
380
FTUS41 KBTV 301724
TAFRUT
TAF
KRUT 301724Z 3018/3118 34008KT P6SM FEW200
     FM302300 07004KT P6SM BKN200
     FM310600 13005KT 4SM -SN BR OVC050
     FM310800 13009KT 2SM -SN BR OVC030
     FM311500 14010G18KT 4SM -SNRA OVC028=

USA.gov is the U.S. government's official web portal to all federal, state and local government web resources and services.